Dobrodošli na spletni strani vremenske postaje Senovo. Vse informacije so informativnega značaja, saj vremenska postaja ni del državne mreže meteoroloških postaj. AKTUALNIH OBVESTIL NI.


Posebna pozornost v zvezi z vremenskimi dogajanji ni potrebna.    Posebna pozornost v zvezi z vremenskimi dogajanji ni potrebna.

Pogled proti Armezu več informacij Pogled proti Armezu


Lisca več informacij Lisca


Radar strel več informacij blitzortung!


Radar padavin več informacij rain snow radar


Obiščite še:

Template documentation
and downloads

And another site



Weather Underground, zgodovina - Tekstovno

Dnevni povzetek za December 14, 2017 Enote:  Angleško    Metrično   Obe
« Predhodni Dan
Naslednji Dan »
Dnevni Tedenski Mesečni Letni Po meri
  Višja: Nižja: Povprečje:
Temperatura: TemperatureC °F 0.4 °F 5.9 °F
Točka rosišča: DewpointC °F -0.6 °F 3.6 °F
Vlažnost: Humidity % 66 % 86 %
Hitrost vetra: WindSpeedKMH mph 0.0 mph 2.8 mph
Sunki vetra: WindSpeedGustKMH mph - -
Veter:- - WSW
Zračni tlak: PressurehPa in 999.9 in -
Padavine: 0.3 in    
Historical Graphs
 
 
Tabelarni podarki za December 14, 2017
Čas Temperatura Točka rosišča Zračni tlak Veter Hitrost vetra Sunki vetra Vlažnost Intenziteta padavin (urna)
TemperatureC °F DewpointC °F PressurehPa in Calm     Humidity % HourlyPrecipMM in
00:01 0.7 °F -0.3 °F 1009.0 in Calm     93 % 0.0 in
00:06 0.6 °F -0.4 °F 1009.0 in SSW 0.5 mph 4.0 mph 93 % 0.0 in
00:11 0.5 °F -0.5 °F 1009.0 in SSW 0.6 mph 4.0 mph 93 % 0.0 in
00:21 0.4 °F -0.6 °F 1009.0 in Calm     93 % 0.0 in
00:31 0.5 °F -0.5 °F 1009.0 in WNW 0.3 mph 4.0 mph 93 % 0.0 in
00:36 0.6 °F -0.4 °F 1009.0 in WNW 0.3 mph 4.0 mph 93 % 0.0 in
00:41 0.7 °F -0.3 °F 1009.0 in Calm     93 % 0.0 in
00:46 0.7 °F -0.2 °F 1009.0 in Calm   3.2 mph 94 % 0.0 in
00:51 0.8 °F -0.1 °F 1009.0 in SSW 0.5 mph 4.3 mph 94 % 0.0 in
00:56 0.9 °F 0.1 °F 1009.0 in SSW 0.8 mph 4.3 mph 94 % 0.0 in
01:01 0.9 °F 0.1 °F 1009.0 in SSW 0.6 mph 3.2 mph 94 % 0.0 in
01:06 0.9 °F 0.1 °F 1009.0 in SW 0.3 mph 3.2 mph 94 % 0.0 in
01:11 1.0 °F 0.0 °F 1009.0 in SW 0.6 mph 3.5 mph 93 % 0.0 in
01:16 1.0 °F 0.2 °F 1009.0 in South 1.9 mph 4.3 mph 94 % 0.0 in
01:21 1.0 °F 0.2 °F 1009.0 in SSE 2.3 mph 5.0 mph 94 % 0.0 in
01:26 1.0 °F 0.2 °F 1009.0 in South 1.9 mph 6.9 mph 94 % 0.0 in
01:31 1.0 °F 0.2 °F 1008.0 in South 3.1 mph 6.9 mph 94 % 0.0 in
01:36 1.0 °F 0.2 °F 1008.0 in South 3.7 mph 6.1 mph 94 % 0.0 in
01:41 1.0 °F 0.2 °F 1008.0 in South 3.9 mph 6.1 mph 94 % 0.0 in
01:46 1.1 °F 0.2 °F 1008.0 in South 2.6 mph 6.1 mph 94 % 0.0 in
01:51 1.1 °F 0.2 °F 1008.0 in SSE 0.5 mph 3.5 mph 94 % 0.0 in
01:56 1.1 °F 0.2 °F 1008.0 in SE 2.1 mph 7.6 mph 94 % 0.0 in
02:01 1.1 °F 0.2 °F 1008.0 in SE 3.4 mph 7.6 mph 94 % 0.0 in
02:11 1.1 °F 0.2 °F 1008.0 in SSE 2.7 mph 4.7 mph 94 % 0.0 in
02:16 1.1 °F 0.2 °F 1007.0 in SSE 1.3 mph 4.7 mph 94 % 0.0 in
02:26 1.1 °F 0.2 °F 1007.0 in SW 0.8 mph 3.5 mph 94 % 0.0 in
02:31 1.1 °F 0.2 °F 1007.0 in SW 0.5 mph 3.5 mph 94 % 0.0 in
02:36 1.1 °F 0.2 °F 1007.0 in SE 1.4 mph 5.8 mph 94 % 0.0 in
02:41 1.1 °F 0.2 °F 1007.0 in SE 3.1 mph 5.8 mph 94 % 0.0 in
02:46 1.0 °F 0.2 °F 1007.0 in SSE 3.7 mph 7.6 mph 94 % 0.0 in
02:51 1.0 °F 0.2 °F 1007.0 in South 3.1 mph 7.6 mph 94 % 0.0 in
02:56 0.9 °F 0.2 °F 1007.0 in SW 1.1 mph 4.0 mph 95 % 0.0 in
03:01 0.9 °F 0.2 °F 1007.0 in SW 0.2 mph 2.6 mph 95 % 0.0 in
03:06 0.8 °F 0.1 °F 1007.0 in SW 0.6 mph 4.0 mph 95 % 0.0 in
03:11 0.7 °F 0.0 °F 1007.0 in SW 0.8 mph 4.0 mph 95 % 0.0 in
03:21 0.7 °F 0.0 °F 1007.0 in SW 2.6 mph 4.7 mph 95 % 0.0 in
03:26 0.6 °F -0.1 °F 1007.0 in SW 3.9 mph 5.5 mph 95 % 0.0 in
03:31 0.6 °F -0.1 °F 1006.0 in SW 4.0 mph 5.5 mph 95 % 0.0 in
03:36 0.6 °F -0.1 °F 1006.0 in SSW 4.2 mph 5.8 mph 95 % 0.0 in
03:41 0.6 °F -0.1 °F 1006.0 in SSW 4.2 mph 6.4 mph 95 % 0.0 in
03:51 0.6 °F -0.1 °F 1005.0 in South 5.1 mph 9.3 mph 95 % 0.0 in
03:56 0.6 °F -0.1 °F 1005.0 in SSW 3.5 mph 7.9 mph 95 % 0.0 in
04:01 0.6 °F -0.1 °F 1005.0 in SW 2.6 mph 5.8 mph 95 % 0.0 in
04:06 0.7 °F 0.0 °F 1005.0 in SSW 4.0 mph 6.4 mph 95 % 0.0 in
04:11 0.9 °F 0.2 °F 1005.0 in SW 4.7 mph 6.4 mph 95 % 0.0 in
04:17 0.9 °F 0.2 °F 1003.9 in SW 3.5 mph 5.8 mph 95 % 0.0 in
04:22 0.8 °F 0.1 °F 1003.9 in WSW 1.6 mph 5.0 mph 95 % 0.0 in
04:25 0.8 °F 0.1 °F 1003.9 in NNW 0.5 mph 4.7 mph 95 % 0.0 in
04:27 0.8 °F 0.1 °F 1003.9 in South 0.2 mph 2.1 mph 95 % 0.0 in
04:30 0.8 °F 0.1 °F 1005.0 in SSW 0.2 mph 3.2 mph 95 % 0.0 in
04:35 0.7 °F 0.0 °F 1005.0 in SSW 0.3 mph 4.0 mph 95 % 0.0 in
04:41 0.8 °F 0.1 °F 1005.0 in SW 3.4 mph 5.5 mph 95 % 0.0 in
04:45 0.9 °F 0.2 °F 1005.0 in SW 4.7 mph 6.4 mph 95 % 0.0 in
04:50 1.0 °F 0.3 °F 1005.0 in SW 4.5 mph 6.4 mph 95 % 0.0 in
04:54 1.1 °F 0.4 °F 1005.0 in SW 4.7 mph 6.4 mph 95 % 0.0 in
04:55 1.2 °F 0.5 °F 1005.0 in SW 4.7 mph 6.4 mph 95 % 0.0 in
05:00 1.4 °F 0.7 °F 1005.0 in SW 5.0 mph 6.4 mph 95 % 0.0 in
05:05 1.5 °F 0.8 °F 1005.0 in SW 4.8 mph 6.4 mph 95 % 0.0 in
05:10 1.6 °F 0.9 °F 1005.0 in SW 4.8 mph 6.4 mph 95 % 0.0 in
05:15 1.7 °F 1.1 °F 1005.0 in SW 4.2 mph 6.4 mph 96 % 0.0 in
05:20 1.7 °F 1.1 °F 1005.0 in SSW 1.8 mph 5.8 mph 96 % 0.0 in
05:24 1.8 °F 1.2 °F 1005.0 in SSW 1.3 mph 4.3 mph 96 % 0.0 in
05:25 1.8 °F 1.2 °F 1005.0 in SSW 1.1 mph 4.3 mph 96 % 0.0 in
05:30 1.8 °F 1.2 °F 1005.0 in SSW 1.4 mph 4.3 mph 96 % 0.0 in
05:34 1.9 °F 1.3 °F 1005.0 in SW 0.8 mph 4.0 mph 96 % 0.0 in
05:35 1.9 °F 1.3 °F 1005.0 in West 0.5 mph 4.0 mph 96 % 0.0 in
05:40 1.9 °F 1.3 °F 1005.0 in Calm     96 % 0.0 in
05:43 1.9 °F 1.3 °F 1003.9 in Calm     96 % 0.0 in
05:48 1.9 °F 1.3 °F 1003.9 in Calm     96 % 0.0 in
05:53 1.9 °F 1.3 °F 1003.9 in Calm     96 % 0.0 in
05:58 1.9 °F 1.3 °F 1003.9 in Calm     96 % 0.0 in
06:03 1.9 °F 1.3 °F 1003.9 in Calm     96 % 0.0 in
06:08 1.9 °F 1.3 °F 1003.9 in Calm     96 % 0.0 in
06:13 2.0 °F 1.4 °F 1003.9 in Calm     96 % 0.0 in
06:18 2.0 °F 1.4 °F 1003.9 in WSW 0.2 mph 3.5 mph 96 % 0.0 in
06:22 2.1 °F 1.6 °F 1003.9 in WSW 0.2 mph 3.5 mph 96 % 0.0 in
06:23 2.1 °F 1.6 °F 1003.9 in West 0.2 mph 3.5 mph 96 % 0.0 in
06:28 2.3 °F 1.7 °F 1003.9 in SW 0.5 mph 5.5 mph 96 % 0.0 in
06:34 2.4 °F 1.8 °F 1003.9 in South 2.4 mph 8.7 mph 96 % 0.0 in
06:39 2.5 °F 1.9 °F 1003.9 in South 2.6 mph 8.7 mph 96 % 0.0 in
06:44 2.8 °F 2.2 °F 1003.9 in SW 2.4 mph 5.5 mph 96 % 0.0 in
06:49 3.0 °F 2.4 °F 1003.9 in WSW 3.5 mph 9.3 mph 96 % 0.0 in
06:53 3.0 °F 2.4 °F 1003.9 in West 2.7 mph 9.3 mph 96 % 0.0 in
06:58 3.2 °F 2.6 °F 1003.9 in NW 2.3 mph 9.3 mph 96 % 0.0 in
07:03 3.3 °F 2.7 °F 1003.9 in NW 2.7 mph 9.3 mph 96 % 0.0 in
07:05 3.4 °F 2.8 °F 1003.9 in NW 3.2 mph 9.3 mph 96 % 0.0 in
07:10 3.6 °F 3.0 °F 1003.9 in NW 3.2 mph 8.7 mph 96 % 0.0 in
07:20 3.8 °F 3.2 °F 1003.9 in NW 2.6 mph 6.4 mph 96 % 0.0 in
07:25 3.9 °F 3.3 °F 1003.9 in NW 0.8 mph 4.7 mph 96 % 0.0 in
07:30 4.0 °F 3.4 °F 1003.9 in NE 1.4 mph 4.3 mph 96 % 0.0 in
07:35 4.1 °F 3.5 °F 1003.9 in West 2.1 mph 6.1 mph 96 % 0.0 in
07:40 4.2 °F 3.6 °F 1003.9 in West 2.7 mph 9.7 mph 96 % 0.0 in
07:45 4.4 °F 3.8 °F 1003.9 in WSW 5.1 mph 14.0 mph 96 % 0.0 in
07:50 4.7 °F 4.1 °F 1003.9 in WSW 6.0 mph 14.0 mph 96 % 0.0 in
07:55 4.8 °F 4.2 °F 1003.9 in West 5.1 mph 13.7 mph 96 % 0.0 in
08:01 4.9 °F 4.3 °F 1003.9 in West 3.7 mph 13.7 mph 96 % 0.0 in
08:06 5.0 °F 4.4 °F 1003.9 in WSW 3.5 mph 9.0 mph 96 % 0.0 in
08:11 5.3 °F 4.7 °F 1003.9 in WSW 5.3 mph 14.3 mph 96 % 0.0 in
08:16 5.4 °F 4.8 °F 1003.9 in WSW 6.9 mph 16.6 mph 96 % 0.0 in
08:17 5.4 °F 4.8 °F 1003.9 in WSW 6.9 mph 16.6 mph 96 % 0.0 in
08:22 5.7 °F 5.1 °F 1003.9 in WSW 6.9 mph 16.6 mph 96 % 0.0 in
08:27 5.7 °F 5.1 °F 1003.9 in WSW 5.8 mph 10.1 mph 96 % 0.0 in
08:32 5.7 °F 4.9 °F 1003.9 in WSW 4.2 mph 9.3 mph 95 % 0.0 in
08:37 5.7 °F 4.9 °F 1003.9 in SW 3.7 mph 9.3 mph 95 % 0.0 in
08:42 5.8 °F 5.1 °F 1003.9 in SW 5.3 mph 10.1 mph 95 % 0.0 in
08:47 5.9 °F 5.0 °F 1003.9 in SW 5.6 mph 10.1 mph 94 % 0.0 in
08:52 6.0 °F 5.1 °F 1003.9 in SW 5.6 mph 10.5 mph 94 % 0.0 in
08:53 6.0 °F 5.1 °F 1003.9 in SW 5.6 mph 10.5 mph 94 % 0.0 in
08:57 6.2 °F 5.2 °F 1003.9 in WSW 6.3 mph 12.6 mph 93 % 0.0 in
09:02 6.3 °F 5.3 °F 1003.9 in WSW 5.1 mph 12.6 mph 93 % 0.0 in
09:03 6.3 °F 5.3 °F 1003.9 in WSW 5.1 mph 12.6 mph 93 % 0.0 in
09:08 6.4 °F 5.3 °F 1003.9 in West 3.7 mph 6.4 mph 93 % 0.0 in
09:09 6.4 °F 5.3 °F 1003.9 in West 3.7 mph 6.4 mph 93 % 0.0 in
09:14 6.5 °F 5.3 °F 1003.9 in WSW 5.0 mph 12.6 mph 92 % 0.0 in
09:19 6.7 °F 5.5 °F 1003.9 in WSW 6.8 mph 17.7 mph 92 % 0.0 in
09:22 6.8 °F 5.4 °F 1003.9 in WSW 5.6 mph 17.7 mph 91 % 0.0 in
09:27 6.8 °F 5.4 °F 1003.9 in SW 7.1 mph 17.7 mph 91 % 0.0 in
09:28 6.9 °F 5.6 °F 1003.9 in SW 6.6 mph 13.0 mph 91 % 0.0 in
09:32 6.9 °F 5.4 °F 1003.9 in SW 6.8 mph 13.0 mph 90 % 0.0 in
09:37 6.9 °F 5.4 °F 1003.9 in SW 5.8 mph 11.9 mph 90 % 0.0 in
09:42 7.0 °F 5.3 °F 1005.0 in SW 5.6 mph 11.9 mph 89 % 0.0 in
09:48 7.0 °F 5.3 °F 1005.0 in SW 4.7 mph 9.7 mph 89 % 0.0 in
09:49 7.1 °F 5.2 °F 1005.0 in SW 4.7 mph 9.7 mph 88 % 0.0 in
09:53 7.1 °F 5.2 °F 1005.0 in SW 4.3 mph 9.7 mph 88 % 0.0 in
09:58 7.2 °F 5.2 °F 1005.0 in WSW 3.4 mph 6.1 mph 87 % 0.0 in
10:03 7.3 °F 5.3 °F 1005.0 in WSW 3.2 mph 8.7 mph 87 % 0.0 in
10:08 7.3 °F 5.3 °F 1005.0 in WSW 3.1 mph 10.1 mph 87 % 0.0 in
10:13 7.4 °F 5.2 °F 1005.0 in West 4.5 mph 12.6 mph 86 % 0.0 in
10:18 7.5 °F 5.3 °F 1005.0 in West 7.4 mph 17.2 mph 86 % 0.0 in
10:23 7.6 °F 5.4 °F 1005.0 in West 6.4 mph 17.2 mph 86 % 0.0 in
10:28 7.7 °F 5.5 °F 1005.0 in WSW 4.5 mph 9.3 mph 86 % 0.0 in
10:29 7.7 °F 5.5 °F 1005.0 in WSW 4.5 mph 9.3 mph 86 % 0.0 in
10:30 7.8 °F 5.6 °F 1005.0 in WSW 4.5 mph 9.3 mph 86 % 0.0 in
10:33 7.9 °F 5.6 °F 1005.0 in WSW 5.8 mph 13.0 mph 85 % 0.0 in
10:38 8.0 °F 5.6 °F 1005.0 in WSW 5.8 mph 13.0 mph 85 % 0.0 in
10:43 8.2 °F 5.7 °F 1003.9 in West 4.3 mph 12.2 mph 84 % 0.0 in
10:45 8.3 °F 5.8 °F 1003.9 in WNW 4.7 mph 18.0 mph 84 % 0.0 in
10:50 8.5 °F 5.9 °F 1003.9 in West 5.6 mph 18.0 mph 84 % 0.0 in
10:55 8.6 °F 6.1 °F 1003.9 in West 5.3 mph 10.1 mph 84 % 0.0 in
11:01 8.7 °F 6.0 °F 1003.9 in West 6.3 mph 14.0 mph 83 % 0.0 in
11:06 8.9 °F 6.2 °F 1003.9 in WSW 6.3 mph 14.0 mph 83 % 0.0 in
11:11 8.9 °F 6.0 °F 1003.9 in West 6.4 mph 16.6 mph 82 % 0.0 in
11:16 9.0 °F 5.9 °F 1002.9 in WNW 6.3 mph 16.6 mph 81 % 0.0 in
11:21 9.0 °F 5.9 °F 1002.9 in West 4.5 mph 11.6 mph 81 % 0.0 in
11:23 9.0 °F 5.7 °F 1002.9 in West 4.3 mph 6.9 mph 80 % 0.0 in
11:26 9.1 °F 5.8 °F 1002.9 in West 2.7 mph 6.1 mph 80 % 0.0 in
11:31 9.3 °F 6.0 °F 1002.9 in West 4.0 mph 15.4 mph 80 % 0.0 in
11:34 9.6 °F 6.3 °F 1002.9 in West 5.0 mph 15.4 mph 80 % 0.0 in
11:36 9.6 °F 6.1 °F 1002.9 in West 6.4 mph 15.4 mph 79 % 0.0 in
11:37 9.7 °F 6.2 °F 1002.9 in West 7.4 mph 15.4 mph 79 % 0.0 in
11:42 10.2 °F 6.6 °F 1002.9 in West 6.8 mph 14.0 mph 78 % 0.0 in
11:47 10.4 °F 6.6 °F 1002.9 in West 6.9 mph 17.2 mph 77 % 0.0 in
11:48 10.4 °F 6.6 °F 1002.9 in West 7.2 mph 17.2 mph 77 % 0.0 in
11:49 10.4 °F 6.6 °F 1002.9 in WSW 7.4 mph 17.2 mph 77 % 0.0 in
11:53 10.4 °F 6.3 °F 1002.9 in West 8.5 mph 17.2 mph 76 % 0.0 in
11:58 10.4 °F 6.2 °F 1002.9 in West 7.1 mph 14.0 mph 75 % 0.0 in
12:03 10.5 °F 6.1 °F 1002.9 in SW 4.8 mph 13.7 mph 74 % 0.0 in
12:08 10.5 °F 6.1 °F 1002.9 in SW 4.5 mph 12.2 mph 74 % 0.0 in
12:09 10.5 °F 6.1 °F 1002.9 in SW 4.5 mph 12.2 mph 74 % 0.0 in
12:14 10.5 °F 5.9 °F 1002.9 in West 5.0 mph 8.5 mph 73 % 0.0 in
12:17 10.5 °F 5.9 °F 1002.9 in WSW 5.1 mph 8.5 mph 73 % 0.0 in
12:19 10.5 °F 5.9 °F 1002.9 in WSW 5.1 mph 10.1 mph 73 % 0.0 in
12:24 10.5 °F 5.7 °F 1002.9 in SW 5.3 mph 10.5 mph 72 % 0.0 in
12:29 10.5 °F 5.7 °F 1002.9 in WSW 5.5 mph 12.2 mph 72 % 0.0 in
12:30 10.5 °F 5.7 °F 1002.9 in WSW 5.1 mph 12.2 mph 72 % 0.0 in
12:35 10.5 °F 5.7 °F 1002.9 in SW 5.5 mph 12.6 mph 72 % 0.0 in
12:40 10.5 °F 5.7 °F 1002.9 in SW 6.1 mph 13.7 mph 72 % 0.0 in
12:44 10.5 °F 5.4 °F 1002.9 in SW 6.1 mph 13.7 mph 71 % 0.0 in
12:49 10.5 °F 5.4 °F 1002.9 in SW 6.6 mph 11.9 mph 71 % 0.0 in
12:54 10.5 °F 5.4 °F 1002.9 in SW 6.4 mph 13.0 mph 71 % 0.0 in
12:58 10.4 °F 5.4 °F 1002.9 in SW 6.0 mph 13.0 mph 71 % 0.0 in
13:03 10.4 °F 5.4 °F 1002.9 in SW 6.4 mph 14.0 mph 71 % 0.0 in
13:08 10.4 °F 5.2 °F 1002.9 in SW 7.2 mph 14.0 mph 70 % 0.0 in
13:09 10.4 °F 5.2 °F 1002.9 in SW 7.2 mph 14.0 mph 70 % 0.0 in
13:14 10.4 °F 5.2 °F 1002.9 in SSW 7.6 mph 13.7 mph 70 % 0.0 in
13:19 10.5 °F 5.3 °F 1002.9 in SW 5.8 mph 13.7 mph 70 % 0.0 in
13:24 10.5 °F 5.3 °F 1002.9 in WSW 5.1 mph 12.6 mph 70 % 0.0 in
13:29 10.7 °F 5.4 °F 1002.9 in West 8.0 mph 24.5 mph 70 % 0.0 in
13:33 10.7 °F 5.2 °F 1002.9 in West 9.3 mph 24.5 mph 69 % 0.0 in
13:34 10.7 °F 5.2 °F 1002.9 in West 9.2 mph 24.5 mph 69 % 0.0 in
13:39 10.7 °F 5.2 °F 1002.9 in West 5.5 mph 13.7 mph 69 % 0.0 in
13:44 10.8 °F 5.3 °F 1002.9 in West 4.7 mph 8.7 mph 69 % 0.0 in
13:50 10.8 °F 5.3 °F 1002.9 in West 5.1 mph 12.2 mph 69 % 0.0 in
13:55 10.8 °F 5.3 °F 1002.9 in West 4.7 mph 12.2 mph 69 % 0.0 in
13:56 10.8 °F 5.3 °F 1002.9 in West 4.7 mph 12.2 mph 69 % 0.0 in
14:01 10.9 °F 5.4 °F 1002.9 in WNW 5.0 mph 12.6 mph 69 % 0.0 in
14:02 10.9 °F 5.4 °F 1002.9 in WNW 5.1 mph 12.6 mph 69 % 0.0 in
14:06 11.1 °F 5.4 °F 1002.9 in WNW 5.0 mph 12.6 mph 68 % 0.0 in
14:11 11.3 °F 5.6 °F 1002.9 in WNW 4.2 mph 12.2 mph 68 % 0.0 in
14:16 11.4 °F 5.7 °F 1001.9 in West 5.0 mph 14.0 mph 68 % 0.0 in
14:21 11.4 °F 5.5 °F 1001.9 in WSW 5.5 mph 14.0 mph 67 % 0.0 in
14:26 11.4 °F 5.5 °F 1001.9 in WSW 5.0 mph 14.0 mph 67 % 0.0 in
14:30 11.4 °F 5.5 °F 1002.9 in SW 5.1 mph 9.3 mph 67 % 0.0 in
14:35 11.5 °F 5.6 °F 1002.9 in WSW 4.8 mph 9.3 mph 67 % 0.0 in
14:40 11.5 °F 5.6 °F 1002.9 in West 5.0 mph 15.4 mph 67 % 0.0 in
14:45 11.6 °F 5.4 °F 1001.9 in West 3.7 mph 8.5 mph 66 % 0.0 in
14:50 11.6 °F 5.4 °F 1001.9 in WSW 3.5 mph 7.6 mph 66 % 0.0 in
14:55 11.5 °F 5.4 °F 1001.9 in SW 4.5 mph 9.0 mph 66 % 0.0 in
15:00 11.3 °F 5.4 °F 1002.9 in SSW 6.1 mph 9.7 mph 67 % 0.0 in
15:05 11.2 °F 5.3 °F 1002.9 in SW 5.0 mph 9.7 mph 67 % 0.0 in
15:10 11.1 °F 5.2 °F 1002.9 in SW 2.7 mph 9.3 mph 67 % 0.0 in
15:15 11.0 °F 5.1 °F 1002.9 in SW 3.5 mph 6.9 mph 67 % 0.0 in
15:20 10.9 °F 5.2 °F 1002.9 in SSW 5.0 mph 7.6 mph 68 % 0.0 in
15:22 10.9 °F 5.2 °F 1002.9 in South 5.1 mph 7.6 mph 68 % 0.0 in
15:27 10.7 °F 5.1 °F 1002.9 in South 5.3 mph 9.3 mph 68 % 0.0 in
15:32 10.5 °F 4.8 °F 1002.9 in South 4.3 mph 9.3 mph 68 % 0.0 in
15:37 10.3 °F 4.8 °F 1002.9 in South 3.4 mph 6.9 mph 69 % 0.0 in
15:42 10.0 °F 4.6 °F 1002.9 in SSW 2.4 mph 5.8 mph 69 % 0.0 in
15:47 9.8 °F 4.6 °F 1001.9 in West 1.6 mph 4.3 mph 70 % 0.0 in
15:50 9.7 °F 4.5 °F 1001.9 in WSW 1.8 mph 6.1 mph 70 % 0.0 in
15:55 9.4 °F 4.4 °F 1001.9 in SW 2.1 mph 6.1 mph 71 % 0.0 in
16:00 9.1 °F 4.1 °F 1001.9 in West 1.6 mph 4.7 mph 71 % 0.0 in
16:03 9.0 °F 4.0 °F 1001.9 in NW 0.6 mph 3.5 mph 71 % 0.0 in
16:05 8.9 °F 4.1 °F 1001.9 in NW 0.5 mph 3.5 mph 72 % 0.0 in
16:10 8.7 °F 3.9 °F 1001.9 in Calm     72 % 0.0 in
16:15 8.6 °F 4.1 °F 1002.9 in WSW 0.2 mph 4.0 mph 73 % 0.0 in
16:20 8.4 °F 3.8 °F 1002.9 in WSW 0.5 mph 4.0 mph 73 % 0.0 in
16:25 8.2 °F 3.8 °F 1002.9 in WSW 0.8 mph 4.3 mph 74 % 0.0 in
16:27 8.1 °F 3.7 °F 1002.9 in WSW 1.1 mph 4.3 mph 74 % 0.0 in
16:32 7.9 °F 3.7 °F 1002.9 in WSW 0.6 mph 3.2 mph 75 % 0.0 in
16:37 7.8 °F 3.7 °F 1002.9 in NNW 0.2 mph 2.6 mph 75 % 0.0 in
16:42 7.6 °F 3.4 °F 1002.9 in NW 0.5 mph 4.3 mph 75 % 0.0 in
16:47 7.5 °F 3.6 °F 1002.9 in NW 1.1 mph 4.3 mph 76 % 0.0 in
16:52 7.4 °F 3.4 °F 1002.9 in WNW 0.8 mph 4.0 mph 76 % 0.0 in
16:55 7.3 °F 3.6 °F 1002.9 in West 0.3 mph 3.5 mph 77 % 0.0 in
16:58 7.3 °F 3.6 °F 1001.9 in Calm     77 % 0.0 in
17:03 7.1 °F 3.3 °F 1001.9 in Calm     77 % 0.0 in
17:08 7.0 °F 3.4 °F 1001.9 in Calm     78 % 0.0 in
17:14 6.9 °F 3.5 °F 1001.9 in Calm     79 % 0.0 in
17:19 6.9 °F 3.5 °F 1001.9 in Calm     79 % 0.0 in
17:24 6.8 °F 3.6 °F 1001.9 in Calm     80 % 0.0 in
17:29 6.7 °F 3.5 °F 1001.9 in Calm     80 % 0.0 in
17:34 6.7 °F 3.7 °F 1001.9 in Calm     81 % 0.0 in
17:39 6.8 °F 3.8 °F 1001.9 in Calm     81 % 0.0 in
17:44 6.7 °F 3.8 °F 1001.9 in Calm     82 % 0.0 in
17:45 6.7 °F 3.8 °F 1001.9 in Calm     82 % 0.0 in
17:50 6.6 °F 3.7 °F 1001.9 in Calm     82 % 0.0 in
17:55 6.5 °F 3.7 °F 1001.9 in Calm     82 % 0.0 in
17:59 6.5 °F 3.8 °F 1002.9 in WSW 0.2 mph 6.4 mph 83 % 0.0 in
18:04 6.6 °F 3.9 °F 1002.9 in WSW 1.1 mph 6.4 mph 83 % 0.0 in
18:09 6.5 °F 3.8 °F 1002.9 in West 1.1 mph 6.4 mph 83 % 0.0 in
18:14 6.5 °F 4.0 °F 1002.9 in Calm     84 % 0.0 in
18:18 6.5 °F 4.0 °F 1002.9 in Calm     84 % 0.0 in
18:22 6.5 °F 4.0 °F 1002.9 in WNW 0.2 mph 3.5 mph 84 % 0.0 in
18:32 6.5 °F 4.2 °F 1002.9 in WNW 1.1 mph 5.5 mph 85 % 0.0 in
18:37 6.4 °F 4.1 °F 1002.9 in Calm     85 % 0.0 in
18:42 6.3 °F 3.9 °F 1002.9 in Calm     85 % 0.0 in
18:47 6.3 °F 3.9 °F 1002.9 in NW 0.5 mph 3.2 mph 85 % 0.0 in
18:48 6.3 °F 3.9 °F 1002.9 in NW 0.5 mph 3.2 mph 85 % 0.0 in
18:52 6.2 °F 3.9 °F 1002.9 in NW 0.5 mph 3.2 mph 85 % 0.0 in
18:57 6.1 °F 3.9 °F 1002.9 in Calm   1.8 mph 86 % 0.0 in
19:02 6.1 °F 3.9 °F 1002.9 in Calm   1.8 mph 86 % 0.0 in
19:07 6.1 °F 3.9 °F 1002.9 in ENE 0.8 mph 4.0 mph 86 % 0.0 in
19:12 6.1 °F 3.9 °F 1002.9 in ENE 0.8 mph 4.0 mph 86 % 0.0 in
19:17 6.1 °F 4.1 °F 1002.9 in Calm     87 % 0.0 in
19:22 6.1 °F 4.1 °F 1002.9 in WNW 1.3 mph 4.3 mph 87 % 0.0 in
19:24 6.1 °F 4.1 °F 1002.9 in WNW 1.6 mph 4.3 mph 87 % 0.0 in
19:28 6.1 °F 4.1 °F 1002.9 in WNW 2.1 mph 4.3 mph 87 % 0.0 in
19:29 6.1 °F 4.1 °F 1002.9 in WNW 1.6 mph 4.0 mph 87 % 0.0 in
19:34 6.1 °F 4.1 °F 1002.9 in SW 0.6 mph 4.7 mph 87 % 0.0 in
19:39 6.1 °F 4.1 °F 1002.9 in SW 0.6 mph 4.7 mph 87 % 0.0 in
19:44 6.1 °F 4.1 °F 1002.9 in Calm     87 % 0.0 in
19:49 6.1 °F 4.1 °F 1002.9 in Calm     87 % 0.0 in
19:54 6.1 °F 4.1 °F 1002.9 in Calm     87 % 0.0 in
19:59 6.1 °F 4.1 °F 1002.9 in Calm     87 % 0.0 in
20:04 6.0 °F 4.2 °F 1002.9 in North 0.5 mph 3.2 mph 88 % 0.0 in
20:09 6.0 °F 4.2 °F 1002.9 in North 0.3 mph 3.2 mph 88 % 0.0 in
20:11 6.0 °F 4.2 °F 1002.9 in North 0.3 mph 3.2 mph 88 % 0.0 in
20:16 6.0 °F 4.2 °F 1002.9 in WNW 0.5 mph 5.0 mph 88 % 0.0 in
20:21 6.0 °F 4.2 °F 1002.9 in WSW 1.1 mph 5.0 mph 88 % 0.0 in
20:26 6.0 °F 4.3 °F 1002.9 in NW 2.9 mph 5.8 mph 89 % 0.0 in
20:31 6.0 °F 4.3 °F 1002.9 in NW 2.6 mph 5.8 mph 89 % 0.0 in
20:36 6.0 °F 4.3 °F 1002.9 in NW 0.8 mph 3.5 mph 89 % 0.0 in
20:41 6.0 °F 4.3 °F 1002.9 in Calm     89 % 0.0 in
20:46 5.9 °F 4.4 °F 1001.9 in SSE 1.3 mph 4.3 mph 90 % 0.0 in
20:48 5.9 °F 4.4 °F 1001.9 in SSW 2.3 mph 5.8 mph 90 % 0.0 in
20:51 5.9 °F 4.4 °F 1001.9 in WNW 3.1 mph 5.8 mph 90 % 0.0 in
20:56 5.9 °F 4.4 °F 1001.9 in NNW 1.8 mph 5.8 mph 90 % 0.0 in
21:01 6.0 °F 4.5 °F 1001.9 in NNE 0.5 mph 5.5 mph 90 % 0.0 in
21:06 6.0 °F 4.5 °F 1001.9 in NNW 1.0 mph 5.5 mph 90 % 0.0 in
21:07 6.0 °F 4.5 °F 1001.9 in NNW 1.1 mph 5.5 mph 90 % 0.0 in
21:12 6.2 °F 4.7 °F 1001.9 in NW 1.3 mph 4.7 mph 90 % 0.0 in
21:17 6.3 °F 4.9 °F 1001.9 in NNW 1.0 mph 6.1 mph 91 % 0.0 in
21:22 6.3 °F 4.9 °F 1001.9 in NW 1.3 mph 6.1 mph 91 % 0.0 in
21:27 6.3 °F 4.9 °F 1001.9 in West 1.8 mph 6.9 mph 91 % 0.0 in
21:32 6.4 °F 5.1 °F 1001.9 in NW 2.9 mph 6.9 mph 91 % 0.0 in
21:37 6.4 °F 5.1 °F 1001.9 in ESE 4.5 mph 10.1 mph 91 % 0.0 in
21:42 6.4 °F 5.1 °F 1001.9 in SE 4.7 mph 10.1 mph 91 % 0.0 in
21:47 6.5 °F 5.3 °F 1000.9 in South 4.2 mph 9.7 mph 92 % 0.0 in
21:52 6.5 °F 5.3 °F 1000.9 in SE 3.4 mph 6.1 mph 92 % 0.0 in
21:57 6.5 °F 5.3 °F 1000.9 in NNW 3.4 mph 6.1 mph 92 % 0.0 in
22:02 6.5 °F 5.3 °F 1000.9 in WNW 3.2 mph 6.1 mph 92 % 0.0 in
22:07 6.5 °F 5.3 °F 1000.9 in SW 2.3 mph 5.5 mph 92 % 0.0 in
22:12 6.4 °F 5.2 °F 1000.9 in SSE 1.3 mph 4.3 mph 92 % 0.0 in
22:17 6.3 °F 5.1 °F 999.9 in South 0.3 mph 3.5 mph 92 % 0.0 in
22:20 6.3 °F 5.1 °F 999.9 in Calm     92 % 0.0 in
22:22 6.3 °F 5.1 °F 999.9 in Calm     92 % 0.0 in
22:23 6.2 °F 5.0 °F 999.9 in Calm     92 % 0.0 in
22:27 6.1 °F 4.9 °F 999.9 in WSW 0.5 mph 3.2 mph 92 % 0.0 in
22:32 6.0 °F 4.8 °F 1001.9 in WSW 0.3 mph 3.2 mph 92 % 0.0 in
22:37 5.7 °F 4.7 °F 1001.9 in Calm     93 % 0.0 in
22:42 5.6 °F 4.6 °F 1001.9 in Calm     93 % 0.0 in
22:47 5.5 °F 4.3 °F 1000.9 in SW 0.8 mph 4.3 mph 92 % 0.0 in
22:52 5.3 °F 4.1 °F 1000.9 in SW 1.4 mph 4.3 mph 92 % 0.0 in
22:57 5.1 °F 3.9 °F 1000.9 in SSW 0.6 mph 4.0 mph 92 % 0.0 in
23:02 5.0 °F 3.8 °F 1000.9 in Calm     92 % 0.0 in
23:07 5.0 °F 3.8 °F 1000.9 in Calm     92 % 0.0 in
23:12 4.7 °F 3.7 °F 1000.9 in Calm     93 % 0.0 in
23:17 4.6 °F 3.6 °F 999.9 in Calm     93 % 0.0 in
23:22 4.6 °F 3.6 °F 999.9 in Calm     93 % 0.0 in
23:27 4.5 °F 3.4 °F 999.9 in Calm     93 % 0.0 in
23:32 4.4 °F 3.2 °F 999.9 in Calm     92 % 0.0 in
23:37 4.2 °F 3.0 °F 999.9 in Calm     92 % 0.0 in
23:42 4.1 °F 2.9 °F 999.9 in Calm     92 % 0.0 in
23:47 4.0 °F 2.8 °F 999.9 in Calm     92 % 0.0 in
23:52 3.9 °F 2.9 °F 999.9 in Calm     93 % 0.0 in
23:57 3.8 °F 2.8 °F 999.9 in Calm     93 % 0.3 in
Vremenska postaja Senovo
Podatki zbrani iz Weather Underground - 3 mb

Script developed by  Jim McMurry - jmcmurry@mwt.net Adapted for the template by  Wim van der Kuil - Leuven-Template.eu

Vremenski podatki so objavljeni na:

European Weather Network

WeatherCloud

Weather Underground

AWEKAS

HAMweather, WeatherForYou, PWS Weather

MapView

Geostik

Slovenia weather network

Oprema, ki se uporablja:

Vremenski program
Cumulus

Vremenski server
Asus

Cumulus

Asus